Abbeville, MS (38601)

1:20 PM CDT on July 28, 2016 (GMT -0500)
Twelve Oaks Subdivision | | Change Station

Elev 404 ft 34.40 °N, 89.56 °W | Updated 7 minutes ago

Mostly Cloudy
Mostly Cloudy
84.7 °F
Feels Like 94 °F
N
2.2
Wind Variable Wind from North

Today
High -- | Low -- °F
--% Chance of Precip.
Yesterday
High -- | Low -- °F
Precip. -- in
Pressure 30.00 in
Visibility 9.0 miles
Clouds Mostly Cloudy 2000 ft
Mostly Cloudy 2700 ft
Mostly Cloudy 3100 ft
Heat Index 94 °F
Dew Point 76 °F
Humidity 76%
Rainfall 0.35 in
Snow Depth Not available.
6:06 AM 8:02 PM
Waning Crescent, 30% visible
METAR KUOX 281755Z AUTO 23009G14KT 9SM BKN020 BKN027 BKN031 27/23 A3000 RMK AO2
Pressure 30.00 in
Visibility 9.0 miles
Clouds Mostly Cloudy 2000 ft
Mostly Cloudy 2700 ft
Mostly Cloudy 3100 ft
Heat Index 94 °F
Dew Point 76 °F
Humidity 76%
Rainfall 0.35 in
Snow Depth Not available.
6:06 AM 8:02 PM
Waning Crescent, 30% visible
METAR KUOX 281755Z AUTO 23009G14KT 9SM BKN020 BKN027 BKN031 27/23 A3000 RMK AO2

10-Day Weather Forecast

Almanac

Astronomy

Jul. 28, 2016 Rise Set
Actual Time
Civil Twilight
Nautical Twilight
Astronomical Twilight
Moon
Length of Visible Light
Length of Day
Tomorrow will be .
, % of the Moon is Illuminated

Today's Extremes

State Highs State Lows

Community

WunderPhotos

Upload Photos

1,928,174 photos uploaded!

WunderBlog® & News

Nearby

Air Quality

  Air Quality AQ Index Pollutant
Not available.

Snow Depth

Station Depth Elevation

Earthquake Activity

City Distance Mag. Time & Date
Minimum magnitude displayed is 2.5.

Coastal Water Temperatures

Place Temperature

Stations

Nearby Weather Stations

Station Location Temp. Windchill Dew Point Humidity Wind Precip. Elev Updated Type
                   

Watches & Warnings

There are currently no watches in effect.